Main page
METAR-TAF:

METAR-TAF

Airports :

Amman Civil Airport

Amman, Jordan

latitude: 31-59N, longitude: 035-59E, elevation: 767 m

Current weather observation

The report was made 44 minutes ago, at 18:00 UTC
Calm wind
Temperature 15°C
Humidity 67%
Pressure 1021 hPa
Visibility: 5000 m
haze

METAR: OJAM 191800Z 00000KT 5000 HZ NSC 15/09 Q1021 NOSIG

Time: 20:44 (18:44 UTC)

Forecast

The report was made 1 hour and 54 minutes ago, at 16:50 UTC
Forecast valid from 19 at 18 UTC to 20 at 24 UTC
Wind 2 kt from variable directions
Visibility: 6000 m
Temporary
from 20 at 03 UTC to 20 at 06 UTC
Visibility: 3000 m
haze
Becoming
from 20 at 06 UTC to 20 at 08 UTC
Wind 12 kt from the East/Southeast
Visibility: 5000 m
haze

TAF: OJAM 191650Z 1918/2024 VRB02KT 6000 NSC TEMPO 2003/2006 3000 HZ BECMG 2006/2008 12012KT 5000 HZ NSC

Weather observations and forecasts of more than 4000 airports (METAR and TAF reports).

The available stations are represented by yellow and red dots on the map.

Hover mouse over dot to see the name of the station.

Then click to see weather observations and forecasts.

To change the map : click on the green buttons with a black cross to zoom in, on the green button with a dash to zoom out, or on the green arrows for adjacent maps.


METAR-TAF: